Impacts METAR Board
IDs:

KSAN - San Diego Intl Arpt, CA, US

Updated at: 1100 UTC 21 Sep 2018
Potential Impact None Slight Moderate High
Time 20/23Z 21/00Z 21/01Z 21/02Z 21/03Z 21/04Z 21/05Z 21/06Z 21/07Z 21/08Z 21/09Z 21/10Z 21/11Z
Temp71 71 70 69 68 68 67 67 67 66 65 64 64
Dewpt59 59 59 59 59 59 59 59 59 59 58 57 58
Altim29.87 29.87 29.89 29.90 29.91 29.94 29.95 29.96 29.96 29.95 29.95 29.95 29.95
VIS10 10 10 10 10 10 10 10 10 10 10 10 10
CIG-- -- -- -- -- -- -- -- -- -- -- -- --
CoverFEWFEWSCTFEWFEWFEWSCTSCTSCTSCTFEWFEWFEW
FltCatVFRVFRVFRVFRVFRVFRVFRVFRVFRVFRVFRVFRVFR
WX--------------------------
WDir22019022018019018019020020330202010
WSpd9 9 7 5 4 6 4 3 3 3 3 3 4
WGst-- -- -- -- -- -- -- -- -- -- -- -- --
Raw hourly METARs
KSAN 202251Z 22009KT 10SM FEW013 FEW060 22/15 A2987 RMK AO2 SLP115 T02170150
KSAN 202351Z 19009KT 10SM FEW013 FEW060 22/15 A2987 RMK AO2 SLP116 T02170150 10222 20194 55003
KSAN 210051Z 22007KT 10SM SCT016 SCT060 21/15 A2989 RMK AO2 SLP120 T02110150
KSAN 210151Z 18005KT 10SM FEW015 21/15 A2990 RMK AO2 SLP123 T02060150
KSAN 210251Z 19004KT 10SM FEW015 20/15 A2991 RMK AO2 SLP129 T02000150 53013
KSAN 210351Z 18006KT 10SM FEW015 20/15 A2994 RMK AO2 SLP137 T02000150
KSAN 210451Z 19004KT 10SM SCT015 19/15 A2995 RMK AO2 SLP143 T01940150
KSAN 210551Z 20003KT 10SM SCT015 19/15 A2996 RMK AO2 SLP144 T01940150 10217 20194 51015
KSAN 210651Z 02003KT 10SM SCT015 19/15 A2996 RMK AO2 SLP145 T01940150
KSAN 210751Z 33003KT 10SM SCT015 19/15 A2995 RMK AO2 SLP142 T01890150 402220189
KSAN 210851Z 02003KT 10SM FEW015 18/14 A2995 RMK AO2 SLP140 T01830144 58003
KSAN 210951Z 02003KT 10SM FEW015 18/14 A2995 RMK AO2 SLP140 T01780139
KSAN 211051Z 01004KT 10SM FEW015 18/14 A2995 RMK AO2 SLP141 T01780144



Page loaded:  11:40 UTC  |   04:40 AM Pacific  |   05:40 AM Mountain  |   06:40 AM Central  |   07:40 AM Eastern

 

ADVISORIES

FORECASTS

FORECASTS

OBSERVATIONS

USER TOOLS

ABOUT US